createdAt,value
2019-02-09T00:00:39.869Z,6.10
2019-02-09T00:03:09.665Z,6.08
2019-02-09T00:05:38.712Z,3.05
2019-02-09T00:08:10.500Z,4.22
2019-02-09T00:10:39.616Z,4.95
2019-02-09T00:13:09.032Z,3.52
2019-02-09T00:15:38.124Z,5.30
2019-02-09T00:18:07.160Z,4.55
2019-02-09T00:20:36.213Z,4.62
2019-02-09T00:23:05.956Z,4.17
2019-02-09T00:25:35.307Z,4.33
2019-02-09T00:28:04.356Z,5.55
2019-02-09T00:30:33.454Z,4.15
2019-02-09T00:33:02.496Z,5.50
2019-02-09T00:35:31.884Z,5.50
2019-02-09T00:38:00.992Z,6.33
2019-02-09T00:40:30.485Z,5.85
2019-02-09T00:42:59.546Z,6.25
2019-02-09T00:45:29.330Z,3.70
2019-02-09T00:47:58.444Z,4.72
2019-02-09T00:50:27.493Z,5.70
2019-02-09T00:52:56.589Z,5.47
2019-02-09T00:55:29.353Z,4.22
2019-02-09T00:57:58.465Z,4.50
2019-02-09T01:00:31.335Z,5.72
2019-02-09T01:03:00.879Z,5.33
2019-02-09T01:05:37.829Z,6.92
2019-02-09T01:08:06.967Z,2.95
2019-02-09T01:10:36.025Z,2.77
2019-02-09T01:13:06.211Z,4.47
2019-02-09T01:15:35.262Z,3.60
2019-02-09T01:18:04.636Z,5.75
2019-02-09T01:20:35.360Z,4.87
2019-02-09T01:23:04.777Z,4.70
2019-02-09T01:25:33.826Z,5.30
2019-02-09T01:28:02.934Z,4.67
2019-02-09T01:30:31.987Z,5.20
2019-02-09T01:33:01.051Z,5.17
2019-02-09T01:35:30.452Z,5.90
2019-02-09T01:37:59.506Z,3.42
2019-02-09T01:40:30.167Z,4.08
2019-02-09T01:42:59.258Z,3.05
2019-02-09T01:45:32.811Z,4.12
2019-02-09T01:48:02.172Z,6.35
2019-02-09T01:50:33.350Z,4.10
2019-02-09T01:53:02.439Z,4.10
2019-02-09T01:55:31.489Z,4.15
2019-02-09T01:58:00.911Z,5.65
2019-02-09T02:00:34.305Z,3.17
2019-02-09T02:03:03.339Z,3.42
2019-02-09T02:05:32.694Z,4.22
2019-02-09T02:08:01.738Z,5.53
2019-02-09T02:10:40.382Z,3.25
2019-02-09T02:13:11.089Z,3.30
2019-02-09T02:15:41.582Z,3.22
2019-02-09T02:18:11.254Z,3.42
2019-02-09T02:20:40.558Z,5.12
2019-02-09T02:23:09.623Z,3.10
2019-02-09T02:25:38.729Z,2.62
2019-02-09T02:28:07.779Z,4.65
2019-02-09T02:30:39.162Z,5.95
2019-02-09T02:33:08.883Z,5.25
2019-02-09T02:35:38.729Z,4.75
2019-02-09T02:38:07.794Z,5.60
2019-02-09T02:40:36.968Z,6.03
2019-02-09T02:43:06.023Z,4.92
2019-02-09T02:45:35.067Z,3.40
2019-02-09T02:48:04.521Z,5.40
2019-02-09T02:50:33.919Z,4.83
2019-02-09T02:53:02.972Z,6.50
2019-02-09T02:55:33.503Z,6.03
2019-02-09T02:58:02.622Z,7.75
2019-02-09T03:00:36.029Z,8.60
2019-02-09T03:03:05.149Z,5.80
2019-02-09T03:05:34.540Z,6.42
2019-02-09T03:08:04.057Z,6.33
2019-02-09T03:10:33.445Z,5.30
2019-02-09T03:13:02.854Z,5.17
2019-02-09T03:15:35.821Z,5.97
2019-02-09T03:18:05.752Z,3.30
2019-02-09T03:20:34.815Z,5.17
2019-02-09T03:23:04.387Z,7.30
2019-02-09T03:25:37.024Z,6.33
2019-02-09T03:28:06.078Z,8.00
2019-02-09T03:30:47.138Z,8.20
2019-02-09T03:33:08.903Z,6.58
2019-02-09T03:35:38.215Z,8.18
2019-02-09T03:38:07.271Z,14.23
2019-02-09T03:40:36.366Z,8.68
2019-02-09T03:43:05.443Z,7.03
2019-02-09T03:45:35.200Z,10.90
2019-02-09T03:48:04.363Z,7.12
2019-02-09T03:50:34.011Z,9.95
2019-02-09T03:53:03.070Z,12.78
2019-02-09T03:55:32.236Z,10.82
2019-02-09T03:58:01.286Z,6.87
2019-02-09T04:00:32.255Z,8.83
2019-02-09T04:03:02.333Z,6.92
2019-02-09T04:05:31.382Z,5.90
2019-02-09T04:08:00.518Z,9.78
2019-02-09T04:10:29.615Z,6.22
2019-02-09T04:12:58.724Z,5.72
2019-02-09T04:15:29.262Z,6.50
2019-02-09T04:17:58.364Z,6.30
2019-02-09T04:20:27.428Z,7.15
2019-02-09T04:22:56.474Z,9.98
2019-02-09T04:25:25.852Z,6.58
2019-02-09T04:27:55.167Z,8.10
2019-02-09T04:30:33.590Z,6.55
2019-02-09T04:33:02.993Z,9.58
2019-02-09T04:35:32.040Z,6.67
2019-02-09T04:38:01.375Z,5.00
2019-02-09T04:40:32.234Z,9.08
2019-02-09T04:43:01.281Z,7.97
2019-02-09T04:45:30.381Z,7.12
2019-02-09T04:47:59.517Z,10.68
2019-02-09T04:50:28.558Z,7.92
2019-02-09T04:52:57.662Z,5.30
2019-02-09T04:55:27.546Z,6.03
2019-02-09T04:57:56.915Z,8.35
2019-02-09T05:00:32.621Z,10.23
2019-02-09T05:03:01.946Z,7.78
2019-02-09T05:05:30.998Z,9.18
2019-02-09T05:08:00.117Z,8.53
2019-02-09T05:10:29.454Z,11.38
2019-02-09T05:12:58.507Z,7.17
2019-02-09T05:15:27.623Z,9.73
2019-02-09T05:17:56.689Z,7.90
2019-02-09T05:20:28.640Z,9.68
2019-02-09T05:22:57.731Z,8.35
2019-02-09T05:25:27.084Z,11.75
2019-02-09T05:27:56.444Z,13.08
2019-02-09T05:30:28.555Z,9.15
2019-02-09T05:32:57.606Z,6.30
2019-02-09T05:35:27.073Z,6.95
2019-02-09T05:37:56.168Z,10.10
2019-02-09T05:40:28.414Z,8.63
2019-02-09T05:43:00.355Z,8.45
2019-02-09T05:45:30.882Z,9.13
2019-02-09T05:47:59.971Z,9.75
2019-02-09T05:50:28.988Z,7.35
2019-02-09T05:52:58.091Z,10.58
2019-02-09T05:55:27.152Z,9.45
2019-02-09T05:57:56.478Z,9.30
2019-02-09T06:00:36.364Z,9.80
2019-02-09T06:03:05.479Z,13.05
2019-02-09T06:05:34.538Z,9.23
2019-02-09T06:08:03.798Z,7.08
2019-02-09T06:10:32.857Z,10.43
2019-02-09T06:13:01.913Z,11.40
2019-02-09T06:15:31.013Z,8.83
2019-02-09T06:18:00.398Z,6.30
2019-02-09T06:20:30.497Z,8.55
2019-02-09T06:22:59.975Z,8.40
2019-02-09T06:25:29.066Z,7.70
2019-02-09T06:27:58.128Z,10.50
2019-02-09T06:30:32.958Z,8.98
2019-02-09T06:33:02.349Z,6.97
2019-02-09T06:35:31.411Z,4.37
2019-02-09T06:38:00.520Z,6.15
2019-02-09T06:40:29.576Z,5.70
2019-02-09T06:42:58.689Z,6.37
2019-02-09T06:45:28.184Z,8.43
2019-02-09T06:48:26.859Z,8.05
2019-02-09T06:50:58.183Z,12.75
2019-02-09T06:53:27.565Z,6.72
2019-02-09T06:55:56.669Z,8.88
2019-02-09T06:58:25.782Z,11.35
2019-02-09T07:00:55.162Z,11.50
2019-02-09T07:03:24.476Z,10.78
2019-02-09T07:05:53.581Z,22.55
2019-02-09T07:08:22.640Z,7.90
2019-02-09T07:10:51.950Z,3.92
2019-02-09T07:13:21.369Z,7.33
2019-02-09T07:15:50.426Z,4.00
2019-02-09T07:18:19.474Z,7.55
2019-02-09T07:20:51.026Z,8.30
2019-02-09T07:23:20.395Z,8.98
2019-02-09T07:25:49.438Z,3.58
2019-02-09T07:28:18.530Z,9.28
2019-02-09T07:30:47.903Z,11.60
2019-02-09T07:33:17.293Z,10.72
2019-02-09T07:35:46.403Z,10.65
2019-02-09T07:38:15.462Z,10.40
2019-02-09T07:40:44.512Z,9.00
2019-02-09T07:43:13.871Z,7.33
2019-02-09T07:45:42.923Z,9.53
2019-02-09T07:48:12.298Z,7.28
2019-02-09T07:50:41.423Z,7.62
2019-02-09T07:53:10.477Z,9.30
2019-02-09T07:55:39.589Z,7.12
2019-02-09T07:58:08.686Z,11.20
2019-02-09T08:00:37.737Z,7.65
2019-02-09T08:03:06.799Z,14.60
2019-02-09T08:05:35.898Z,12.40
2019-02-09T08:08:05.238Z,12.90
2019-02-09T08:10:39.268Z,10.60
2019-02-09T08:13:11.198Z,9.53
2019-02-09T08:15:40.259Z,13.98
2019-02-09T08:18:10.555Z,11.38
2019-02-09T08:20:40.051Z,10.13
2019-02-09T08:23:12.929Z,10.85
2019-02-09T08:25:42.782Z,11.88
2019-02-09T08:28:13.954Z,8.85
2019-02-09T08:30:49.208Z,10.72
2019-02-09T08:33:18.314Z,10.20
2019-02-09T08:35:47.373Z,8.93
2019-02-09T08:38:17.526Z,9.00
2019-02-09T08:40:46.632Z,7.15
2019-02-09T08:45:15.827Z,5.08
2019-02-09T08:47:46.004Z,13.20
2019-02-09T08:50:29.288Z,10.15
2019-02-09T08:52:59.228Z,7.33
2019-02-09T08:55:29.116Z,9.70
2019-02-09T08:57:59.354Z,7.08
2019-02-09T09:00:35.258Z,5.25
2019-02-09T09:03:05.926Z,7.60
2019-02-09T09:05:36.139Z,11.25
2019-02-09T09:08:06.507Z,9.78
2019-02-09T09:10:36.403Z,10.60
2019-02-09T09:13:06.299Z,10.98
2019-02-09T09:15:49.695Z,9.20
2019-02-09T09:18:19.585Z,8.35
2019-02-09T09:20:53.483Z,8.08
2019-02-09T09:24:11.341Z,7.80
2019-02-09T09:26:40.405Z,9.08
2019-02-09T09:29:10.403Z,9.13
2019-02-09T09:31:39.501Z,10.05
2019-02-09T09:34:08.548Z,10.50
2019-02-09T09:36:37.604Z,12.88
2019-02-09T09:39:09.051Z,6.60
2019-02-09T09:41:38.434Z,7.83
2019-02-09T09:44:07.491Z,10.05
2019-02-09T09:46:36.985Z,13.45
2019-02-09T09:49:06.056Z,8.65
2019-02-09T09:51:35.115Z,14.50
2019-02-09T09:54:04.929Z,12.93
2019-02-09T09:56:33.997Z,16.60
2019-02-09T09:59:03.378Z,11.48
2019-02-09T10:01:32.488Z,12.03
2019-02-09T10:04:01.832Z,13.95
2019-02-09T10:06:31.228Z,11.65
2019-02-09T10:09:00.338Z,9.60
2019-02-09T10:11:29.732Z,14.23
2019-02-09T10:13:58.796Z,12.45
2019-02-09T10:16:27.901Z,11.53
2019-02-09T10:18:56.954Z,14.68
2019-02-09T10:21:26.329Z,10.35
2019-02-09T10:23:55.430Z,12.53
2019-02-09T10:26:24.491Z,17.30
2019-02-09T10:28:53.814Z,14.70
2019-02-09T10:31:22.919Z,15.28
2019-02-09T10:33:51.979Z,13.18
2019-02-09T10:36:21.032Z,15.98
2019-02-09T10:38:50.455Z,16.05
2019-02-09T10:41:19.510Z,13.05
2019-02-09T10:43:48.564Z,13.93
2019-02-09T10:46:17.680Z,16.65
2019-02-09T10:48:46.744Z,17.30
2019-02-09T10:51:15.813Z,13.35
2019-02-09T10:53:45.268Z,16.32
2019-02-09T10:56:14.560Z,16.80
2019-02-09T10:58:43.617Z,14.50
2019-02-09T11:01:14.096Z,10.55
2019-02-09T11:03:43.211Z,15.43
2019-02-09T11:06:12.291Z,13.45
2019-02-09T11:08:41.692Z,11.80
2019-02-09T11:11:11.005Z,7.33
2019-02-09T11:13:40.375Z,12.13
2019-02-09T11:16:09.476Z,13.83
2019-02-09T11:18:38.895Z,11.28
2019-02-09T11:21:07.950Z,10.40
2019-02-09T11:23:37.066Z,15.05
2019-02-09T11:26:06.385Z,10.10
2019-02-09T11:28:35.441Z,17.67
2019-02-09T11:31:04.890Z,10.60
2019-02-09T11:33:33.946Z,14.20
2019-02-09T11:36:03.277Z,11.97
2019-02-09T11:38:32.753Z,17.60
2019-02-09T11:41:01.815Z,13.08
2019-02-09T11:43:30.869Z,17.02
2019-02-09T11:46:00.031Z,16.40
2019-02-09T11:48:29.376Z,17.02
2019-02-09T11:50:59.100Z,13.08
2019-02-09T11:53:28.282Z,13.25
2019-02-09T11:55:57.445Z,11.43
2019-02-09T11:58:26.465Z,14.47
2019-02-09T12:00:55.571Z,10.72
2019-02-09T12:03:24.641Z,18.15
2019-02-09T12:05:53.708Z,13.45
2019-02-09T12:08:22.828Z,16.67
2019-02-09T12:10:51.888Z,17.12
2019-02-09T12:13:21.229Z,16.00
2019-02-09T12:15:50.391Z,13.75
2019-02-09T12:18:19.457Z,15.08
2019-02-09T12:20:48.519Z,11.70
2019-02-09T12:23:17.628Z,14.38
2019-02-09T12:25:46.936Z,13.80
2019-02-09T12:28:16.052Z,11.28
2019-02-09T12:30:45.427Z,13.03
2019-02-09T12:33:22.568Z,13.78
2019-02-09T12:35:45.591Z,14.35
2019-02-09T12:38:14.698Z,17.40
2019-02-09T12:40:43.756Z,10.48
2019-02-09T12:43:12.913Z,15.20
2019-02-09T12:45:42.757Z,13.78
2019-02-09T12:48:12.279Z,11.18
2019-02-09T12:50:41.352Z,16.30
2019-02-09T12:53:10.483Z,15.32
2019-02-09T12:55:39.529Z,14.98
2019-02-09T12:58:08.605Z,14.63
2019-02-09T13:00:41.436Z,14.93
2019-02-09T13:03:31.046Z,19.02
2019-02-09T13:05:54.543Z,12.25
2019-02-09T13:08:23.599Z,12.05
2019-02-09T13:10:52.677Z,13.48
2019-02-09T13:13:21.817Z,13.80
2019-02-09T13:15:50.875Z,13.18
2019-02-09T13:18:20.100Z,12.82
2019-02-09T13:20:49.214Z,7.17
2019-02-09T13:23:18.282Z,13.18
2019-02-09T13:25:47.635Z,16.10
2019-02-09T13:28:16.802Z,9.28
2019-02-09T13:30:45.893Z,13.78
2019-02-09T13:33:14.971Z,14.90
2019-02-09T13:35:44.074Z,15.85
2019-02-09T13:38:13.161Z,14.75
2019-02-09T13:40:42.263Z,10.95
2019-02-09T13:43:11.380Z,13.70
2019-02-09T13:45:45.600Z,16.55
2019-02-09T13:48:14.718Z,10.63
2019-02-09T13:50:44.509Z,12.68
2019-02-09T13:53:13.640Z,14.05
2019-02-09T13:55:42.700Z,12.80
2019-02-09T13:58:11.870Z,12.25
2019-02-09T14:00:41.171Z,11.73
2019-02-09T14:03:10.502Z,11.20
2019-02-09T14:05:39.616Z,6.12
2019-02-09T14:08:08.685Z,13.45
2019-02-09T14:10:37.739Z,9.75
2019-02-09T14:13:14.003Z,4.47
2019-02-09T14:15:39.778Z,8.73
2019-02-09T14:18:11.546Z,7.85
2019-02-09T14:20:40.664Z,7.22
2019-02-09T14:23:09.726Z,8.33
2019-02-09T14:25:39.128Z,9.58
2019-02-09T14:28:08.210Z,8.00
2019-02-09T14:30:41.027Z,9.75
2019-02-09T14:33:12.252Z,9.28
2019-02-09T14:35:43.044Z,8.23
2019-02-09T14:38:12.097Z,8.03
2019-02-09T14:40:41.484Z,10.10
2019-02-09T14:43:11.035Z,11.88
2019-02-09T14:45:44.784Z,14.43
2019-02-09T14:48:13.895Z,12.20
2019-02-09T14:50:43.304Z,11.70
2019-02-09T14:53:12.801Z,14.43
2019-02-09T14:55:41.972Z,11.10
2019-02-09T14:58:11.430Z,16.55
2019-02-09T15:00:53.061Z,14.33
2019-02-09T15:03:28.143Z,13.08
2019-02-09T15:05:52.989Z,13.75
2019-02-09T15:08:22.119Z,11.30
2019-02-09T15:10:51.175Z,17.77
2019-02-09T15:13:20.229Z,13.32
2019-02-09T15:16:06.024Z,13.03
2019-02-09T15:18:35.393Z,11.97
2019-02-09T15:21:14.703Z,9.83
2019-02-09T15:23:43.816Z,12.07
2019-02-09T15:26:12.923Z,11.85
2019-02-09T15:28:43.013Z,12.60
2019-02-09T15:31:12.291Z,11.25
2019-02-09T15:33:41.356Z,9.40
2019-02-09T15:36:10.464Z,10.08
2019-02-09T15:38:39.532Z,14.73
2019-02-09T15:41:08.586Z,13.85
2019-02-09T15:43:37.911Z,8.90
2019-02-09T15:46:06.998Z,10.38
2019-02-09T15:48:36.057Z,13.85
2019-02-09T15:51:05.231Z,13.83
2019-02-09T15:53:34.633Z,12.35
2019-02-09T15:56:03.685Z,11.03
2019-02-09T15:58:32.822Z,15.78
2019-02-09T16:01:01.888Z,12.35
2019-02-09T16:03:31.293Z,17.85
2019-02-09T16:06:00.692Z,15.53
2019-02-09T16:08:30.109Z,17.25
2019-02-09T16:10:59.502Z,15.10
2019-02-09T16:13:28.847Z,12.05
2019-02-09T16:15:57.899Z,10.35
2019-02-09T16:18:26.965Z,12.35
2019-02-09T16:20:56.379Z,9.78
2019-02-09T16:23:25.433Z,16.07
2019-02-09T16:25:54.788Z,13.30
2019-02-09T16:28:26.587Z,11.68
2019-02-09T16:30:55.635Z,8.78
2019-02-09T16:33:24.687Z,12.13
2019-02-09T16:35:53.802Z,14.90
2019-02-09T16:38:22.866Z,14.68
2019-02-09T16:40:52.232Z,14.58
2019-02-09T16:43:21.636Z,11.63
2019-02-09T16:45:50.680Z,11.68
2019-02-09T16:48:19.733Z,13.90
2019-02-09T16:50:48.838Z,12.93
2019-02-09T16:53:17.907Z,14.55
2019-02-09T16:55:47.066Z,12.53
2019-02-09T16:58:16.508Z,9.90
2019-02-09T17:00:46.029Z,13.70
2019-02-09T17:03:15.097Z,11.70
2019-02-09T17:05:44.489Z,11.33
2019-02-09T17:08:13.810Z,11.73
2019-02-09T17:10:42.861Z,11.85
2019-02-09T17:13:11.960Z,12.07
2019-02-09T17:15:41.011Z,14.50
2019-02-09T17:18:10.127Z,11.48
2019-02-09T17:20:44.740Z,10.90
2019-02-09T17:23:13.799Z,9.90
2019-02-09T17:25:42.855Z,12.43
2019-02-09T17:28:12.312Z,9.73
2019-02-09T17:30:41.370Z,9.53
2019-02-09T17:33:10.432Z,10.48
2019-02-09T17:35:39.548Z,13.30
2019-02-09T17:38:08.897Z,8.83
2019-02-09T17:40:47.508Z,13.32
2019-02-09T17:43:16.702Z,10.30
2019-02-09T17:45:50.416Z,9.43
2019-02-09T17:48:19.525Z,14.00
2019-02-09T17:50:48.580Z,8.15
2019-02-09T17:53:17.894Z,7.90
2019-02-09T17:55:47.293Z,10.32
2019-02-09T17:58:16.592Z,12.70
2019-02-09T18:00:50.422Z,13.90
2019-02-09T18:03:19.543Z,8.45
2019-02-09T18:05:48.912Z,8.80
2019-02-09T18:08:18.196Z,6.78
2019-02-09T18:10:47.362Z,8.35
2019-02-09T18:13:16.696Z,6.87
2019-02-09T18:15:45.738Z,8.80
2019-02-09T18:18:14.839Z,9.53
2019-02-09T18:20:43.919Z,9.88
2019-02-09T18:23:12.977Z,9.20
2019-02-09T18:25:45.021Z,11.55
2019-02-09T18:28:14.078Z,10.40
2019-02-09T18:30:43.161Z,13.40
2019-02-09T18:33:12.263Z,10.08
2019-02-09T18:35:41.639Z,10.78
2019-02-09T18:38:10.695Z,12.65
2019-02-09T18:40:39.814Z,11.30
2019-02-09T18:43:09.129Z,13.70
2019-02-09T18:45:38.531Z,11.38
2019-02-09T18:48:07.917Z,14.10
2019-02-09T18:50:36.959Z,8.70
2019-02-09T18:53:06.316Z,9.60
2019-02-09T18:55:35.434Z,8.85
2019-02-09T18:58:04.486Z,9.53
2019-02-09T19:00:39.608Z,8.58
2019-02-09T19:03:09.360Z,10.45
2019-02-09T19:05:38.411Z,12.73
2019-02-09T19:08:08.129Z,8.50
2019-02-09T19:10:37.481Z,9.20
2019-02-09T19:13:06.580Z,9.45
2019-02-09T19:15:35.692Z,13.43
2019-02-09T19:18:06.656Z,8.18
2019-02-09T19:20:52.417Z,12.88
2019-02-09T19:23:21.474Z,11.70
2019-02-09T19:25:50.607Z,13.85
2019-02-09T19:28:19.706Z,5.03
2019-02-09T19:30:49.074Z,9.10
2019-02-09T19:33:18.116Z,9.93
2019-02-09T19:35:50.252Z,12.93
2019-02-09T19:38:19.304Z,10.68
2019-02-09T19:40:48.363Z,10.40
2019-02-09T19:43:17.473Z,10.72
2019-02-09T19:45:46.964Z,7.87
2019-02-09T19:48:19.281Z,12.07
2019-02-09T19:50:48.376Z,11.18
2019-02-09T19:53:17.439Z,14.63
2019-02-09T19:55:46.481Z,9.65
2019-02-09T19:58:15.613Z,14.85
2019-02-09T20:00:48.178Z,12.82
2019-02-09T20:03:17.270Z,10.40
2019-02-09T20:05:46.327Z,8.23
2019-02-09T20:08:15.727Z,12.45
2019-02-09T20:10:44.983Z,12.28
2019-02-09T20:13:15.017Z,10.05
2019-02-09T20:15:44.384Z,12.20
2019-02-09T20:18:13.506Z,9.70
2019-02-09T20:20:47.259Z,10.23
2019-02-09T20:23:13.389Z,7.78
2019-02-09T20:25:42.683Z,11.30
2019-02-09T20:28:11.792Z,35.05
2019-02-09T20:30:43.775Z,13.78
2019-02-09T20:33:12.827Z,20.20
2019-02-09T20:35:41.926Z,22.15
2019-02-09T20:38:11.334Z,13.25
2019-02-09T20:40:47.875Z,12.80
2019-02-09T20:43:21.041Z,20.15
2019-02-09T20:45:50.162Z,14.20
2019-02-09T20:48:19.277Z,19.45
2019-02-09T20:50:48.331Z,14.83
2019-02-09T20:53:17.390Z,17.75
2019-02-09T20:55:46.484Z,18.00
2019-02-09T20:58:15.538Z,21.80
2019-02-09T21:00:44.599Z,13.08
2019-02-09T21:03:13.729Z,13.45
2019-02-09T21:05:43.048Z,18.67
2019-02-09T21:08:12.500Z,14.15
2019-02-09T21:10:45.008Z,14.45
2019-02-09T21:13:14.057Z,11.65
2019-02-09T21:15:43.146Z,12.75
2019-02-09T21:18:12.525Z,20.88
2019-02-09T21:20:41.573Z,16.07
2019-02-09T21:23:10.635Z,13.38
2019-02-09T21:25:46.379Z,14.87
2019-02-09T21:28:15.453Z,10.35
2019-02-09T21:30:44.493Z,14.13
2019-02-09T21:33:13.588Z,13.78
2019-02-09T21:35:44.278Z,14.65
2019-02-09T21:38:13.791Z,14.58
2019-02-09T21:40:42.900Z,14.90
2019-02-09T21:43:11.968Z,16.27
2019-02-09T21:45:45.491Z,11.10
2019-02-09T21:48:12.096Z,15.23
2019-02-09T21:50:41.148Z,12.88
2019-02-09T21:53:10.211Z,13.22
2019-02-09T21:55:39.601Z,20.82
2019-02-09T21:58:09.295Z,11.63
2019-02-09T22:00:46.095Z,9.78
2019-02-09T22:03:15.247Z,12.73
2019-02-09T22:05:51.517Z,14.85
2019-02-09T22:08:19.675Z,16.60
2019-02-09T22:10:48.691Z,17.07
2019-02-09T22:13:18.000Z,12.28
2019-02-09T22:15:47.114Z,12.03
2019-02-09T22:18:16.168Z,11.88
2019-02-09T22:20:52.797Z,14.00
2019-02-09T22:23:19.422Z,16.17
2019-02-09T22:25:48.488Z,15.05
2019-02-09T22:28:17.546Z,12.13
2019-02-09T22:30:46.955Z,13.55
2019-02-09T22:33:24.329Z,16.07
2019-02-09T22:35:46.822Z,15.00
2019-02-09T22:38:15.906Z,14.20
2019-02-09T22:40:44.961Z,16.15
2019-02-09T22:43:14.017Z,18.27
2019-02-09T22:45:43.414Z,13.70
2019-02-09T22:48:12.467Z,10.70
2019-02-09T22:50:47.959Z,16.90
2019-02-09T22:53:17.025Z,14.60
2019-02-09T22:55:46.078Z,11.80
2019-02-09T22:58:15.433Z,10.05
2019-02-09T23:01:07.881Z,15.63
2019-02-09T23:03:53.578Z,14.83
2019-02-09T23:06:43.974Z,11.48
2019-02-09T23:09:15.403Z,12.00
2019-02-09T23:11:44.457Z,16.45
2019-02-09T23:14:13.813Z,15.18
2019-02-09T23:16:42.927Z,16.52
2019-02-09T23:19:11.977Z,9.68
2019-02-09T23:21:41.043Z,20.85
2019-02-09T23:24:10.494Z,10.15
2019-02-09T23:26:39.543Z,9.43
2019-02-09T23:29:08.892Z,16.05
2019-02-09T23:31:38.240Z,15.65
2019-02-09T23:34:07.293Z,14.13
2019-02-09T23:36:36.603Z,10.78
2019-02-09T23:39:06.712Z,10.90
2019-02-09T23:41:35.772Z,10.13
2019-02-09T23:44:04.825Z,17.57
2019-02-09T23:46:33.935Z,10.38
2019-02-09T23:49:03.305Z,11.15
2019-02-09T23:51:32.349Z,12.50
2019-02-09T23:54:01.529Z,18.92
2019-02-09T23:56:30.588Z,13.65
2019-02-09T23:58:59.974Z,12.20
